Time;durP1;ratioP1;P1;durP2;ratioP2;P2;SDS_P1;SDS_P2;PMS_P1;PMS_P2;Temp;Humidity;BMP_temperature;BMP_pressure;BME280_temperature;BME280_humidity;BME280_pressure;Samples;Min_cycle;Max_cycle;Signal;HPM_P1;HPM_P2
2023/03/01 00:01:35;;;;;;;12.00;7.70;;;12.60;99.90;;;;;;4962834;28;20282;-71
2023/03/01 00:04:01;;;;;;;18.30;7.73;;;12.50;99.90;;;;;;4980820;28;20205;-71
2023/03/01 00:06:28;;;;;;;13.80;7.70;;;12.60;99.90;;;;;;4963021;28;20193;-71
2023/03/01 00:08:54;;;;;;;12.33;7.20;;;12.60;99.90;;;;;;4964367;28;20637;-71
2023/03/01 00:11:30;;;;;;;20.00;8.20;;;12.50;99.90;;;;;;4962654;28;20185;-70
2023/03/01 00:14:00;;;;;;;23.77;7.53;;;12.50;99.90;;;;;;4979971;28;20189;-70
2023/03/01 00:16:30;;;;;;;16.07;7.33;;;12.60;99.90;;;;;;4963338;28;20220;-70
2023/03/01 00:18:57;;;;;;;20.13;7.63;;;12.60;99.90;;;;;;4980146;28;20196;-70
2023/03/01 00:21:25;;;;;;;22.23;7.97;;;12.60;99.90;;;;;;4978997;28;20225;-70
2023/03/01 00:23:56;;;;;;;18.37;7.53;;;12.60;99.90;;;;;;4963108;28;20192;-70
2023/03/01 00:26:24;;;;;;;18.50;8.70;;;12.50;99.90;;;;;;4963885;28;20276;-70
2023/03/01 00:28:52;;;;;;;19.97;8.00;;;12.40;99.90;;;;;;4961701;28;20204;-71
2023/03/01 00:31:22;;;;;;;14.13;8.03;;;12.40;99.90;;;;;;4961952;28;20746;-70
2023/03/01 00:33:53;;;;;;;18.10;8.50;;;12.40;99.90;;;;;;4979773;28;20373;-70
2023/03/01 00:36:19;;;;;;;21.43;8.20;;;12.30;99.90;;;;;;4963334;28;20197;-70
2023/03/01 00:38:46;;;;;;;15.33;7.93;;;12.30;99.90;;;;;;4981874;28;20277;-70
2023/03/01 00:41:17;;;;;;;15.03;7.60;;;12.30;99.90;;;;;;4978855;28;20847;-71
2023/03/01 00:43:44;;;;;;;15.43;8.00;;;12.30;99.90;;;;;;4979323;28;20201;-70
2023/03/01 00:46:14;;;;;;;13.80;7.90;;;12.30;99.90;;;;;;4980978;28;20284;-70
2023/03/01 00:48:42;;;;;;;14.97;8.00;;;12.20;99.90;;;;;;4978137;28;20198;-70
2023/03/01 00:51:22;;;;;;;17.43;8.00;;;12.20;99.90;;;;;;4977534;28;20188;-70
2023/03/01 00:53:52;;;;;;;17.17;8.63;;;12.20;99.90;;;;;;4981009;28;20228;-70
2023/03/01 00:56:19;;;;;;;19.17;8.43;;;12.10;99.90;;;;;;4962188;28;20221;-70
2023/03/01 00:58:45;;;;;;;22.43;8.13;;;12.10;99.90;;;;;;4964787;28;20263;-70
2023/03/01 01:01:19;;;;;;;16.03;8.17;;;12.10;99.90;;;;;;4964558;28;20228;-73
2023/03/01 01:03:55;;;;;;;18.43;8.80;;;12.10;99.90;;;;;;4965313;28;21617;-72
2023/03/01 01:06:25;;;;;;;15.63;8.07;;;12.00;99.90;;;;;;4948308;28;20501;-72
2023/03/01 01:08:54;;;;;;;15.53;8.43;;;12.00;99.90;;;;;;4981454;28;20186;-73
2023/03/01 01:11:25;;;;;;;18.83;8.97;;;12.00;99.90;;;;;;4983390;28;20212;-72
2023/03/01 01:13:51;;;;;;;13.27;8.43;;;12.00;99.90;;;;;;4984141;28;20185;-73
2023/03/01 01:16:21;;;;;;;16.27;8.80;;;12.00;99.90;;;;;;4979870;28;20295;-73
2023/03/01 01:18:47;;;;;;;15.53;8.57;;;12.00;99.90;;;;;;4965361;28;20205;-73
2023/03/01 01:21:18;;;;;;;18.70;8.87;;;12.10;99.90;;;;;;4984229;28;20224;-73
2023/03/01 01:23:46;;;;;;;14.67;8.50;;;12.10;99.90;;;;;;4982725;28;20189;-73
2023/03/01 01:26:17;;;;;;;17.00;8.77;;;12.20;99.90;;;;;;4967553;28;20526;-73
2023/03/01 01:28:47;;;;;;;16.77;9.07;;;12.20;99.90;;;;;;4981642;28;20182;-73
2023/03/01 01:31:14;;;;;;;21.53;9.07;;;12.20;99.90;;;;;;4948862;28;20267;-72
2023/03/01 01:33:41;;;;;;;24.83;8.63;;;12.20;99.90;;;;;;4986378;28;20204;-72
2023/03/01 01:36:09;;;;;;;17.27;8.57;;;12.20;99.90;;;;;;4983625;28;20247;-73
2023/03/01 01:38:38;;;;;;;25.30;8.60;;;12.20;99.90;;;;;;4967471;28;20236;-72
2023/03/01 01:41:05;;;;;;;16.67;9.10;;;12.20;99.90;;;;;;4984246;28;20217;-73
2023/03/01 01:43:40;;;;;;;20.20;8.63;;;12.20;99.90;;;;;;4979608;28;20248;-72
2023/03/01 01:46:31;;;;;;;18.63;9.43;;;12.10;99.90;;;;;;4984354;28;20185;-72
2023/03/01 01:49:24;;;;;;;16.20;8.17;;;12.10;99.90;;;;;;4958563;28;20356;-72
2023/03/01 01:52:09;;;;;;;17.33;8.33;;;12.10;99.90;;;;;;4984869;28;20846;-72
2023/03/01 01:54:49;;;;;;;18.43;8.80;;;12.10;99.90;;;;;;4986089;28;20568;-72
2023/03/01 01:57:26;;;;;;;16.60;8.40;;;12.10;99.90;;;;;;4984672;28;20193;-72
2023/03/01 02:00:03;;;;;;;18.43;8.20;;;12.10;99.90;;;;;;4983767;28;20209;-72
2023/03/01 02:02:30;;;;;;;21.10;9.37;;;12.10;99.90;;;;;;4988355;28;20702;-72
2023/03/01 02:05:14;;;;;;;20.17;8.83;;;12.10;99.90;;;;;;4963204;28;20185;-69
2023/03/01 02:07:43;;;;;;;24.67;9.00;;;12.20;99.90;;;;;;4979825;28;20647;-69
2023/03/01 02:10:09;;;;;;;17.67;8.43;;;12.20;99.90;;;;;;4982663;28;20189;-69
2023/03/01 02:12:38;;;;;;;21.67;9.77;;;12.20;99.90;;;;;;4984908;28;20676;-69
2023/03/01 02:15:05;;;;;;;15.57;8.63;;;12.20;99.90;;;;;;4983075;28;20201;-70
2023/03/01 02:17:33;;;;;;;14.27;8.20;;;12.20;99.90;;;;;;4951675;28;20181;-69
2023/03/01 02:20:29;;;;;;;16.83;8.33;;;12.20;99.90;;;;;;4964144;28;20723;-69
2023/03/01 02:22:56;;;;;;;17.90;7.77;;;12.10;99.90;;;;;;4979462;28;20212;-69
2023/03/01 02:25:45;;;;;;;16.63;6.90;;;12.10;99.90;;;;;;4965337;28;20694;-70
2023/03/01 02:28:17;;;;;;;24.30;7.37;;;12.20;99.90;;;;;;4982281;28;20192;-70
2023/03/01 02:33:38;;;;;;;21.53;7.57;;;12.20;99.90;;;;;;4971998;28;20268;-69
2023/03/01 02:36:13;;;;;;;18.53;7.37;;;12.20;99.90;;;;;;4982575;28;21533;-69
2023/03/01 02:38:42;;;;;;;13.97;7.50;;;12.20;99.90;;;;;;4983796;28;20227;-69
2023/03/01 02:41:13;;;;;;;12.93;7.70;;;12.20;99.90;;;;;;4978681;28;20228;-69
2023/03/01 02:43:39;;;;;;;20.40;7.63;;;12.20;99.90;;;;;;4983191;28;20688;-69
2023/03/01 02:46:19;;;;;;;15.70;7.33;;;12.30;99.90;;;;;;4964103;28;20193;-70
2023/03/01 02:48:51;;;;;;;21.17;7.70;;;12.20;99.90;;;;;;4980977;28;20599;-69
2023/03/01 02:51:33;;;;;;;14.60;7.37;;;12.20;99.90;;;;;;4963858;28;20332;-69
2023/03/01 02:54:36;;;;;;;13.07;7.43;;;12.20;99.90;;;;;;4980641;28;20221;-70
2023/03/01 02:57:03;;;;;;;18.87;7.73;;;12.20;99.90;;;;;;4977944;28;20196;-71
2023/03/01 02:59:39;;;;;;;14.50;7.40;;;12.10;99.90;;;;;;4982122;28;20281;-70
2023/03/01 03:02:07;;;;;;;17.17;7.13;;;12.10;99.90;;;;;;4979800;28;20185;-71
2023/03/01 03:04:33;;;;;;;19.27;8.17;;;12.10;99.90;;;;;;4982134;28;20649;-70
2023/03/01 03:07:00;;;;;;;16.33;8.27;;;12.10;99.90;;;;;;4980512;28;20181;-70
2023/03/01 03:09:26;;;;;;;13.73;7.83;;;12.10;99.90;;;;;;4945724;28;20708;-71
2023/03/01 03:11:53;;;;;;;23.27;7.40;;;12.10;99.90;;;;;;4978383;28;20213;-70
2023/03/01 03:14:19;;;;;;;13.50;7.17;;;12.10;99.90;;;;;;4981507;28;20750;-70
2023/03/01 03:16:48;;;;;;;11.97;7.13;;;12.10;99.90;;;;;;4979597;28;20193;-70
2023/03/01 03:19:17;;;;;;;18.27;7.43;;;12.10;99.90;;;;;;4961114;28;20186;-70
2023/03/01 03:21:44;;;;;;;17.23;7.20;;;12.20;99.90;;;;;;4978931;28;20218;-70
2023/03/01 03:24:10;;;;;;;16.93;8.03;;;12.20;99.90;;;;;;4981895;28;20193;-70
2023/03/01 03:26:37;;;;;;;13.80;7.30;;;12.20;99.90;;;;;;4983259;28;20186;-71
2023/03/01 03:29:03;;;;;;;25.33;7.93;;;12.30;99.90;;;;;;4980420;28;20185;-71
2023/03/01 03:31:30;;;;;;;19.70;7.40;;;12.30;99.90;;;;;;4980543;28;20301;-71
2023/03/01 03:33:58;;;;;;;20.07;7.83;;;12.40;99.90;;;;;;4963160;28;20769;-70
2023/03/01 03:36:25;;;;;;;16.80;7.47;;;12.40;99.90;;;;;;4963124;28;20186;-70
2023/03/01 03:38:51;;;;;;;14.37;7.03;;;12.40;99.90;;;;;;4981013;28;20194;-70
2023/03/01 03:41:18;;;;;;;17.73;7.40;;;12.50;99.90;;;;;;4964015;28;20205;-70
2023/03/01 03:43:45;;;;;;;13.50;7.20;;;12.50;99.90;;;;;;4950509;28;20186;-70
2023/03/01 03:46:12;;;;;;;18.27;7.13;;;12.70;99.90;;;;;;4963728;28;20189;-70
2023/03/01 03:48:43;;;;;;;12.70;6.97;;;12.70;99.90;;;;;;4962460;28;20208;-70
2023/03/01 03:51:16;;;;;;;18.87;8.13;;;12.80;99.90;;;;;;4946253;28;20271;-70
2023/03/01 03:53:43;;;;;;;16.37;7.10;;;12.80;99.90;;;;;;4964710;28;20296;-70
2023/03/01 03:56:10;;;;;;;15.33;7.23;;;12.80;99.90;;;;;;4962249;28;20613;-71
2023/03/01 03:58:37;;;;;;;18.07;7.47;;;12.80;99.90;;;;;;4981252;28;20390;-70
2023/03/01 04:01:04;;;;;;;25.67;7.87;;;12.80;99.90;;;;;;4978940;28;20227;-70
2023/03/01 04:03:34;;;;;;;14.73;7.30;;;12.80;99.90;;;;;;4978996;28;20284;-71
2023/03/01 04:06:02;;;;;;;18.40;6.97;;;12.70;99.90;;;;;;4945882;28;20189;-71
2023/03/01 04:08:29;;;;;;;16.83;7.33;;;12.70;99.90;;;;;;4980963;28;20197;-70
2023/03/01 04:11:25;;;;;;;18.57;6.73;;;12.70;99.90;;;;;;4962880;28;20208;-70
2023/03/01 04:13:52;;;;;;;13.83;7.20;;;12.70;99.90;;;;;;4978474;28;21035;-71
2023/03/01 04:16:19;;;;;;;21.73;7.60;;;12.80;99.90;;;;;;4982758;28;20204;-71
2023/03/01 04:18:46;;;;;;;14.90;7.17;;;12.80;99.90;;;;;;4948297;28;20652;-70
2023/03/01 04:21:13;;;;;;;18.23;7.17;;;12.80;99.90;;;;;;4978813;28;20479;-70
2023/03/01 04:23:40;;;;;;;12.47;6.40;;;12.80;99.90;;;;;;4980119;28;20190;-70
2023/03/01 04:26:07;;;;;;;15.37;7.43;;;12.80;99.90;;;;;;4963468;28;20220;-71
2023/03/01 04:28:42;;;;;;;13.27;6.23;;;12.80;99.90;;;;;;4981084;28;20216;-71
2023/03/01 04:31:21;;;;;;;19.47;7.33;;;12.90;99.90;;;;;;4980356;28;20267;-71
2023/03/01 04:33:56;;;;;;;12.67;7.03;;;13.10;99.90;;;;;;4961322;28;20256;-70
2023/03/01 04:36:26;;;;;;;18.17;6.90;;;13.00;99.90;;;;;;4962963;28;20186;-71
2023/03/01 04:38:54;;;;;;;18.40;7.50;;;13.00;99.90;;;;;;4979328;28;20240;-70
2023/03/01 04:41:23;;;;;;;17.63;7.83;;;13.00;99.90;;;;;;4980126;28;20791;-70
2023/03/01 04:43:50;;;;;;;23.20;7.80;;;13.00;99.90;;;;;;4978274;28;20229;-71
2023/03/01 04:46:27;;;;;;;21.70;7.73;;;12.90;99.90;;;;;;4979762;28;21090;-70
2023/03/01 04:48:54;;;;;;;18.67;7.53;;;12.90;99.90;;;;;;4978483;28;20755;-70
2023/03/01 04:51:20;;;;;;;30.90;8.40;;;12.80;99.90;;;;;;4961695;28;20639;-70
2023/03/01 04:53:47;;;;;;;25.20;7.87;;;12.70;99.90;;;;;;4965627;28;20189;-70
2023/03/01 04:56:14;;;;;;;19.03;7.90;;;12.80;99.90;;;;;;4977952;28;20866;-70
2023/03/01 04:58:40;;;;;;;23.07;8.67;;;12.70;99.90;;;;;;4979942;28;20396;-70
2023/03/01 05:01:15;;;;;;;20.57;9.07;;;12.80;99.90;;;;;;4978853;28;20248;-70
2023/03/01 05:03:48;;;;;;;21.80;8.20;;;12.80;99.90;;;;;;4976369;28;20196;-70
2023/03/01 05:06:15;;;;;;;21.97;7.40;;;12.80;99.90;;;;;;4978986;28;20213;-70
2023/03/01 05:08:42;;;;;;;13.97;7.60;;;12.80;99.90;;;;;;4979775;28;20220;-70
2023/03/01 05:11:10;;;;;;;15.23;7.70;;;12.80;99.90;;;;;;4977095;28;20285;-70
2023/03/01 05:13:39;;;;;;;16.60;7.30;;;12.90;99.90;;;;;;4963883;28;20544;-70
2023/03/01 05:16:10;;;;;;;23.03;8.80;;;12.90;99.90;;;;;;4979953;28;20198;-70
2023/03/01 05:18:37;;;;;;;21.60;8.80;;;12.90;99.90;;;;;;4962145;28;20225;-70
2023/03/01 05:21:11;;;;;;;21.83;8.93;;;12.90;99.90;;;;;;4979349;28;20217;-71
2023/03/01 05:23:38;;;;;;;19.50;8.93;;;12.90;99.90;;;;;;4961091;28;20591;-70
2023/03/01 05:26:06;;;;;;;17.20;8.63;;;12.90;99.90;;;;;;4978775;28;20578;-70
2023/03/01 05:28:33;;;;;;;16.70;8.70;;;12.90;99.90;;;;;;4961462;28;20239;-70
2023/03/01 05:30:59;;;;;;;24.93;8.93;;;13.00;99.90;;;;;;4959258;28;20249;-71
2023/03/01 05:33:29;;;;;;;24.30;9.33;;;13.00;99.90;;;;;;4977805;28;20561;-71
2023/03/01 05:36:00;;;;;;;21.13;9.20;;;13.00;99.90;;;;;;4946755;28;20211;-72
2023/03/01 05:38:27;;;;;;;19.43;9.00;;;13.10;99.90;;;;;;4979891;28;20190;-71
2023/03/01 05:40:53;;;;;;;17.40;9.20;;;13.20;99.90;;;;;;4963079;28;20216;-71
2023/03/01 05:43:19;;;;;;;16.73;8.90;;;13.20;99.90;;;;;;4981755;28;20192;-70
2023/03/01 05:45:46;;;;;;;19.43;9.47;;;13.30;99.90;;;;;;4984209;28;20200;-71
2023/03/01 05:48:13;;;;;;;22.77;10.30;;;13.40;99.90;;;;;;4983712;28;20232;-70
2023/03/01 05:50:45;;;;;;;16.93;10.43;;;13.40;99.90;;;;;;4984901;28;20177;-71
2023/03/01 05:53:20;;;;;;;14.97;9.90;;;13.50;99.90;;;;;;4965211;28;20196;-70
2023/03/01 05:55:49;;;;;;;18.47;9.77;;;13.60;99.90;;;;;;4980438;28;20776;-70
2023/03/01 05:58:19;;;;;;;22.27;10.13;;;13.70;99.90;;;;;;4980132;28;20228;-70
2023/03/01 06:00:47;;;;;;;19.60;9.87;;;13.80;99.90;;;;;;4978528;28;20228;-70
2023/03/01 06:03:17;;;;;;;15.47;9.43;;;13.90;99.90;;;;;;4965024;28;20194;-70
2023/03/01 06:05:44;;;;;;;17.17;9.63;;;14.00;99.90;;;;;;4978612;28;20601;-71
2023/03/01 06:08:13;;;;;;;19.80;9.27;;;14.10;99.90;;;;;;4981285;28;20865;-71
2023/03/01 06:10:40;;;;;;;20.33;10.20;;;14.30;99.90;;;;;;4983048;28;20769;-70
2023/03/01 06:13:09;;;;;;;19.30;9.67;;;14.40;99.90;;;;;;4982481;28;20193;-70
2023/03/01 06:15:35;;;;;;;18.27;9.53;;;14.50;99.90;;;;;;4965772;28;20857;-70
2023/03/01 06:18:01;;;;;;;19.57;9.97;;;14.60;99.90;;;;;;4962273;28;20197;-70
2023/03/01 06:20:29;;;;;;;14.70;9.63;;;14.80;99.90;;;;;;4982638;28;20214;-70
2023/03/01 06:22:55;;;;;;;17.50;10.73;;;14.90;99.90;;;;;;4982305;28;20853;-70
2023/03/01 06:25:25;;;;;;;22.20;10.63;;;15.00;99.90;;;;;;4980728;28;20247;-71
2023/03/01 06:27:54;;;;;;;18.00;11.23;;;15.00;99.90;;;;;;4981991;28;20194;-71
2023/03/01 06:30:23;;;;;;;21.13;11.87;;;15.10;99.90;;;;;;4983554;28;20205;-70
2023/03/01 06:32:50;;;;;;;18.53;11.87;;;15.20;99.90;;;;;;4979834;28;20194;-70
2023/03/01 06:35:18;;;;;;;19.80;10.80;;;15.30;99.90;;;;;;4982331;28;20244;-70
2023/03/01 06:37:47;;;;;;;20.07;10.43;;;15.30;99.90;;;;;;4961783;28;20201;-70
2023/03/01 06:40:14;;;;;;;21.77;10.20;;;15.40;99.90;;;;;;4979560;28;20257;-70
2023/03/01 06:42:44;;;;;;;20.17;9.60;;;15.50;99.90;;;;;;4980490;28;20185;-70
2023/03/01 06:45:13;;;;;;;18.57;10.10;;;15.60;99.90;;;;;;4968772;28;20197;-71
2023/03/01 06:47:39;;;;;;;15.00;10.63;;;15.80;99.90;;;;;;4979907;28;20195;-71
2023/03/01 06:50:06;;;;;;;19.57;10.20;;;15.80;99.90;;;;;;4981903;28;20193;-70
2023/03/01 06:52:32;;;;;;;16.10;8.27;;;15.80;99.90;;;;;;4981124;28;20189;-70
2023/03/01 06:54:59;;;;;;;13.30;8.20;;;15.90;99.90;;;;;;4948684;28;20197;-71
2023/03/01 06:57:26;;;;;;;23.43;8.17;;;16.00;99.90;;;;;;4982015;28;20217;-71
2023/03/01 06:59:52;;;;;;;14.70;7.63;;;16.00;99.90;;;;;;4979629;28;20696;-70
2023/03/01 07:02:19;;;;;;;16.60;7.43;;;16.10;99.90;;;;;;4980391;28;20190;-71
2023/03/01 07:04:45;;;;;;;20.87;10.77;;;16.30;99.90;;;;;;4981242;28;20255;-71
2023/03/01 07:07:11;;;;;;;21.27;12.93;;;16.20;99.90;;;;;;4982323;28;20224;-70
2023/03/01 07:09:38;;;;;;;30.30;14.43;;;15.90;99.90;;;;;;4965110;28;20907;-70
2023/03/01 07:12:04;;;;;;;26.40;14.87;;;15.70;99.90;;;;;;4980465;28;20233;-70
2023/03/01 07:14:30;;;;;;;31.77;19.07;;;15.60;99.90;;;;;;4981165;28;20185;-70
2023/03/01 07:16:57;;;;;;;35.47;17.63;;;15.40;99.90;;;;;;4980977;28;20233;-71
2023/03/01 07:19:23;;;;;;;28.23;16.07;;;15.40;99.90;;;;;;4979571;28;20189;-70
2023/03/01 07:21:50;;;;;;;26.63;11.70;;;15.30;99.90;;;;;;4980376;28;20270;-71
2023/03/01 07:24:16;;;;;;;21.13;10.73;;;15.30;99.90;;;;;;4981604;28;20243;-70
2023/03/01 07:26:42;;;;;;;18.87;9.70;;;15.30;99.90;;;;;;4981577;28;20201;-70
2023/03/01 07:29:11;;;;;;;21.87;9.77;;;15.30;99.90;;;;;;4962276;28;20212;-70
2023/03/01 07:31:37;;;;;;;20.40;8.80;;;15.30;99.90;;;;;;4979898;28;20197;-70
2023/03/01 07:34:03;;;;;;;16.50;8.80;;;15.30;99.90;;;;;;4976646;28;20224;-70
2023/03/01 07:36:29;;;;;;;16.90;8.47;;;15.30;99.90;;;;;;4980066;28;20321;-71
2023/03/01 07:38:56;;;;;;;16.53;7.67;;;15.40;99.90;;;;;;4981482;28;20259;-70
2023/03/01 07:41:23;;;;;;;15.77;8.30;;;15.40;99.90;;;;;;4980643;28;20591;-71
2023/03/01 07:43:49;;;;;;;23.60;7.90;;;15.50;99.90;;;;;;4981645;28;20206;-70
2023/03/01 07:46:15;;;;;;;16.00;8.93;;;15.50;99.90;;;;;;4962964;28;20656;-71
2023/03/01 07:48:42;;;;;;;18.97;8.10;;;15.60;99.90;;;;;;4977889;28;20237;-72
2023/03/01 07:51:10;;;;;;;19.80;8.30;;;15.60;99.90;;;;;;4957662;28;20216;-70
2023/03/01 07:53:37;;;;;;;17.90;7.10;;;15.60;99.90;;;;;;4960772;28;20287;-70
2023/03/01 07:56:21;;;;;;;16.03;7.70;;;15.70;99.90;;;;;;4980348;28;20205;-70
2023/03/01 07:58:48;;;;;;;19.00;7.73;;;15.80;99.90;;;;;;4957634;28;20201;-70
2023/03/01 08:01:18;;;;;;;16.63;7.50;;;16.00;99.90;;;;;;4961441;28;20210;-70
2023/03/01 08:03:50;;;;;;;25.23;7.73;;;16.10;99.90;;;;;;4962277;28;20263;-70
2023/03/01 08:06:18;;;;;;;20.40;8.20;;;16.10;99.90;;;;;;4980687;28;20961;-70
2023/03/01 08:08:45;;;;;;;12.47;7.50;;;16.00;99.90;;;;;;4978808;28;20201;-71
2023/03/01 08:11:14;;;;;;;19.87;8.03;;;16.00;99.90;;;;;;4947645;28;20197;-70
2023/03/01 08:13:43;;;;;;;18.93;8.40;;;16.00;99.90;;;;;;4978641;28;21009;-71
2023/03/01 08:16:15;;;;;;;23.93;8.37;;;16.20;99.90;;;;;;4980162;28;20197;-71
2023/03/01 08:18:42;;;;;;;28.67;8.70;;;16.50;99.90;;;;;;4959569;28;20744;-71
2023/03/01 08:21:13;;;;;;;17.90;8.20;;;16.80;99.90;;;;;;4961246;28;20580;-71
2023/03/01 08:23:41;;;;;;;22.53;7.90;;;17.10;99.90;;;;;;4974789;28;20204;-71
2023/03/01 08:26:18;;;;;;;22.47;7.77;;;17.10;99.90;;;;;;4946669;28;20624;-70
2023/03/01 08:28:47;;;;;;;16.93;8.30;;;17.20;99.90;;;;;;4960650;28;20198;-71
2023/03/01 08:31:28;;;;;;;17.53;8.47;;;17.40;99.90;;;;;;4978653;28;20193;-71
2023/03/01 08:33:59;;;;;;;24.60;8.77;;;17.50;99.90;;;;;;4977878;28;20288;-71
2023/03/01 08:36:35;;;;;;;29.03;12.33;;;17.50;99.90;;;;;;4979562;28;20190;-71
2023/03/01 08:39:02;;;;;;;28.37;12.57;;;17.80;99.90;;;;;;4959590;28;20308;-70
2023/03/01 08:41:29;;;;;;;19.00;10.80;;;17.80;99.90;;;;;;4961336;28;20556;-70
2023/03/01 08:43:59;;;;;;;21.67;10.30;;;17.90;99.90;;;;;;4980726;28;20205;-71
2023/03/01 08:46:35;;;;;;;16.00;9.83;;;18.00;99.90;;;;;;4948712;28;20189;-71
2023/03/01 08:49:06;;;;;;;26.13;10.83;;;17.90;99.90;;;;;;4958796;28;20181;-71
2023/03/01 08:51:36;;;;;;;24.60;10.50;;;17.90;99.90;;;;;;4959475;28;20190;-71
2023/03/01 08:54:12;;;;;;;24.17;10.87;;;17.80;99.90;;;;;;4977394;28;20205;-71
2023/03/01 08:56:38;;;;;;;25.47;10.47;;;17.80;99.90;;;;;;4959025;28;20204;-71
2023/03/01 08:59:05;;;;;;;19.10;9.93;;;17.90;99.90;;;;;;4979781;28;20221;-71
2023/03/01 09:01:31;;;;;;;22.77;10.03;;;18.00;99.90;;;;;;4979876;28;20220;-71
2023/03/01 09:03:57;;;;;;;22.07;10.37;;;18.10;99.90;;;;;;4963997;28;20601;-71
2023/03/01 09:06:24;;;;;;;27.43;11.50;;;18.20;99.90;;;;;;4958814;28;20208;-71
2023/03/01 09:08:51;;;;;;;21.70;11.17;;;18.40;99.90;;;;;;4959915;28;20858;-71
2023/03/01 09:11:21;;;;;;;20.37;10.63;;;18.40;99.90;;;;;;4958269;28;20200;-71
2023/03/01 09:13:49;;;;;;;25.37;10.13;;;18.40;99.90;;;;;;4962392;28;20197;-71
2023/03/01 09:16:19;;;;;;;18.53;9.40;;;18.50;99.90;;;;;;4979546;28;20197;-72
2023/03/01 09:18:51;;;;;;;21.70;8.93;;;18.50;99.90;;;;;;4979384;28;20202;-72
2023/03/01 09:21:19;;;;;;;24.83;8.63;;;18.50;99.90;;;;;;4979509;28;21036;-72
2023/03/01 09:23:47;;;;;;;22.50;8.77;;;18.60;99.90;;;;;;4966535;28;20216;-72
2023/03/01 09:26:21;;;;;;;17.53;8.30;;;18.70;99.90;;;;;;4967393;28;20580;-72
2023/03/01 09:28:51;;;;;;;21.90;8.60;;;18.90;99.90;;;;;;4966952;28;20188;-72
2023/03/01 09:31:20;;;;;;;19.70;8.33;;;18.90;99.90;;;;;;4980917;28;20614;-72
2023/03/01 09:33:49;;;;;;;20.27;8.80;;;19.00;99.90;;;;;;4987266;28;20205;-72
2023/03/01 09:36:20;;;;;;;25.88;9.50;;;19.10;99.90;;;;;;4979858;28;20681;-72
2023/03/01 09:38:48;;;;;;;20.30;8.93;;;19.20;99.90;;;;;;4977019;28;20251;-73
2023/03/01 09:41:18;;;;;;;18.73;9.40;;;19.30;99.90;;;;;;4963362;28;20244;-72
2023/03/01 09:43:46;;;;;;;20.50;9.83;;;19.40;99.90;;;;;;4963711;28;20300;-72
2023/03/01 09:46:18;;;;;;;24.57;10.43;;;19.50;99.90;;;;;;4964228;28;20181;-72
2023/03/01 09:49:12;;;;;;;21.03;9.37;;;19.60;99.90;;;;;;4981243;28;20544;-72
2023/03/01 09:51:38;;;;;;;18.93;9.20;;;19.70;99.90;;;;;;4961875;28;20205;-72
2023/03/01 09:54:08;;;;;;;23.60;10.40;;;19.90;99.90;;;;;;4964211;28;20189;-72
2023/03/01 09:56:41;;;;;;;26.20;10.67;;;19.90;99.90;;;;;;4961987;28;20233;-72
2023/03/01 09:59:54;;;;;;;20.15;11.38;;;20.00;99.90;;;;;;4962020;28;20207;-72
2023/03/01 10:02:44;;;;;;;25.20;13.80;;;20.10;99.90;;;;;;4978143;28;20207;-72
2023/03/01 10:05:23;;;;;;;19.65;10.07;;;20.30;99.90;;;;;;4948516;28;20533;-72
2023/03/01 10:08:30;;;;;;;18.33;8.25;;;20.30;99.90;;;;;;4980535;28;20200;-72
2023/03/01 10:10:58;;;;;;;29.33;14.07;;;20.50;99.90;;;;;;4949098;28;20567;-72
2023/03/01 10:13:52;;;;;;;22.25;11.98;;;20.70;99.90;;;;;;4981667;28;20657;-73
2023/03/01 10:16:40;;;;;;;32.33;10.50;;;20.90;99.90;;;;;;4981961;28;20198;-72
2023/03/01 10:19:16;;;;;;;24.35;8.43;;;21.00;99.90;;;;;;4976715;28;20538;-73
2023/03/01 10:21:46;;;;;;;17.52;8.13;;;21.10;99.90;;;;;;4971582;28;20220;-72
2023/03/01 10:24:21;;;;;;;23.38;8.63;;;21.20;99.90;;;;;;4963458;28;20653;-72
2023/03/01 10:26:56;;;;;;;23.63;10.13;;;21.20;99.90;;;;;;4982677;28;20280;-72
2023/03/01 10:29:46;;;;;;;25.90;11.02;;;21.30;99.90;;;;;;4966201;28;20186;-72
2023/03/01 10:32:12;;;;;;;23.52;8.85;;;21.50;99.90;;;;;;4979953;28;20537;-72
2023/03/01 10:34:38;;;;;;;21.88;8.52;;;21.50;99.90;;;;;;4980340;28;20198;-72
2023/03/01 10:37:18;;;;;;;19.00;9.05;;;21.50;99.90;;;;;;4979382;28;20561;-72
2023/03/01 10:40:09;;;;;;;22.60;8.88;;;21.60;99.90;;;;;;4982542;28;20248;-72
2023/03/01 10:42:47;;;;;;;19.23;9.88;;;21.70;99.90;;;;;;4968643;28;20236;-72
2023/03/01 10:45:30;;;;;;;25.88;10.93;;;21.80;99.90;;;;;;4983333;28;20687;-72
2023/03/01 10:48:08;;;;;;;25.80;9.93;;;22.00;99.90;;;;;;4945675;28;20406;-72
2023/03/01 10:50:36;;;;;;;29.33;9.75;;;22.20;99.90;;;;;;4965250;28;20534;-72
2023/03/01 10:53:05;;;;;;;19.52;8.27;;;22.40;99.90;;;;;;4962418;28;20534;-72
2023/03/01 10:55:40;;;;;;;23.45;9.00;;;22.60;99.90;;;;;;4979648;28;20205;-72
2023/03/01 10:58:15;;;;;;;21.95;8.65;;;22.60;99.90;;;;;;4980056;28;20189;-72
2023/03/01 11:01:17;;;;;;;31.25;10.15;;;22.90;99.90;;;;;;4981108;28;20216;-73
2023/03/01 11:03:43;;;;;;;21.13;9.25;;;23.00;99.90;;;;;;4963271;28;20185;-72
2023/03/01 11:06:13;;;;;;;18.25;8.73;;;23.10;99.90;;;;;;4983015;28;20740;-73
2023/03/01 11:08:49;;;;;;;18.90;7.32;;;23.10;99.90;;;;;;4983219;28;20546;-72
2023/03/01 11:11:35;;;;;;;23.40;8.73;;;23.10;99.90;;;;;;4978936;28;20304;-72
2023/03/01 11:14:17;;;;;;;22.13;8.60;;;23.00;99.90;;;;;;4981123;28;20745;-72
2023/03/01 11:16:59;;;;;;;21.23;7.97;;;23.50;99.90;;;;;;4975811;28;20216;-73
2023/03/01 11:19:26;;;;;;;19.70;8.18;;;23.60;99.90;;;;;;4979071;28;20197;-72
2023/03/01 11:22:08;;;;;;;20.08;8.35;;;23.10;99.90;;;;;;4947771;28;20588;-72
2023/03/01 11:24:44;;;;;;;34.45;9.57;;;22.90;99.90;;;;;;4982302;28;20248;-72
2023/03/01 11:27:29;;;;;;;23.75;9.18;;;22.90;99.90;;;;;;4968389;28;20215;-72
2023/03/01 11:30:35;;;;;;;19.23;8.23;;;22.80;99.90;;;;;;4962532;28;20232;-72
2023/03/01 11:33:50;;;;;;;19.48;8.60;;;22.80;99.90;;;;;;4938689;28;20193;-72
2023/03/01 11:36:45;;;;;;;25.80;8.82;;;22.80;99.90;;;;;;4980047;28;20202;-72
2023/03/01 11:39:58;;;;;;;24.25;8.18;;;22.90;99.90;;;;;;4982381;28;21162;-72
2023/03/01 11:43:01;;;;;;;21.02;8.77;;;22.90;99.90;;;;;;4938611;28;20336;-72
2023/03/01 11:45:45;;;;;;;16.83;8.00;;;22.80;99.90;;;;;;4954489;28;20201;-72
2023/03/01 11:48:54;;;;;;;23.60;9.52;;;22.90;99.90;;;;;;4959304;28;20189;-72
2023/03/01 11:52:04;;;;;;;26.10;8.60;;;22.70;99.90;;;;;;4964452;28;20226;-72
2023/03/01 11:54:42;;;;;;;18.33;8.50;;;22.70;99.90;;;;;;4969356;28;20182;-72
2023/03/01 11:57:34;;;;;;;18.67;8.70;;;22.70;99.90;;;;;;4981532;28;20344;-72
2023/03/01 12:00:38;;;;;;;26.08;7.97;;;22.70;99.90;;;;;;4978843;28;20726;-72
2023/03/01 12:03:26;;;;;;;24.35;9.55;;;22.80;99.90;;;;;;4978996;28;20656;-72
2023/03/01 12:06:32;;;;;;;23.35;10.35;;;22.80;99.90;;;;;;4965500;28;20212;-72
2023/03/01 12:09:26;;;;;;;15.95;10.35;;;22.70;99.90;;;;;;4976130;28;20228;-72
2023/03/01 12:12:19;;;;;;;24.98;10.80;;;22.70;99.90;;;;;;4962485;28;20185;-72
2023/03/01 12:15:02;;;;;;;19.42;10.02;;;22.60;99.90;;;;;;4975706;28;20198;-72
2023/03/01 12:17:49;;;;;;;26.58;10.10;;;22.50;99.90;;;;;;4939470;28;21110;-72
2023/03/01 12:20:28;;;;;;;27.23;10.52;;;22.40;99.90;;;;;;4976751;28;20296;-72
2023/03/01 12:23:24;;;;;;;21.83;9.35;;;22.40;99.90;;;;;;4976676;28;20192;-72
2023/03/01 12:26:30;;;;;;;19.48;9.65;;;22.40;99.90;;;;;;4974174;28;20182;-72
2023/03/01 12:29:31;;;;;;;25.38;9.25;;;22.40;99.90;;;;;;4979666;28;20880;-72
2023/03/01 12:32:19;;;;;;;18.38;10.00;;;22.30;99.90;;;;;;4976646;28;20185;-72
2023/03/01 12:35:36;;;;;;;22.77;9.90;;;22.30;99.90;;;;;;4982677;28;20181;-72
2023/03/01 12:38:42;;;;;;;18.85;9.55;;;22.20;99.90;;;;;;4964241;28;20227;-72
2023/03/01 12:41:34;;;;;;;17.08;9.07;;;22.00;99.90;;;;;;4984152;28;20224;-72
2023/03/01 12:44:34;;;;;;;19.67;9.23;;;21.90;99.90;;;;;;4988924;28;20567;-72
2023/03/01 12:47:30;;;;;;;19.55;9.68;;;21.80;99.90;;;;;;4961620;28;20223;-72
2023/03/01 12:50:11;;;;;;;24.17;9.93;;;21.80;99.90;;;;;;4982671;28;20185;-72
2023/03/01 12:52:55;;;;;;;17.35;9.18;;;21.70;99.90;;;;;;4965614;28;20755;-72
2023/03/01 12:55:36;;;;;;;20.58;9.23;;;21.60;99.90;;;;;;4979781;28;20186;-72
2023/03/01 12:58:30;;;;;;;24.90;9.00;;;21.60;99.90;;;;;;4978799;28;20240;-72
2023/03/01 13:01:57;;;;;;;23.63;9.70;;;21.60;99.90;;;;;;4987472;28;20275;-72
2023/03/01 13:05:07;;;;;;;21.40;9.35;;;21.80;99.90;;;;;;4968508;28;20280;-72
2023/03/01 13:07:48;;;;;;;20.95;9.82;;;21.80;99.90;;;;;;4968527;28;20209;-72
2023/03/01 13:10:46;;;;;;;21.40;9.05;;;21.80;99.90;;;;;;4979100;28;20201;-72
2023/03/01 13:13:25;;;;;;;21.85;9.38;;;21.60;99.90;;;;;;4985912;28;20189;-73